Time;durP1;ratioP1;P1;durP2;ratioP2;P2;SDS_P1;SDS_P2;PMS_P1;PMS_P2;Temp;Humidity;BMP_temperature;BMP_pressure;BME280_temperature;BME280_humidity;BME280_pressure;Samples;Min_cycle;Max_cycle;Signal;HPM_P1;HPM_P2
2022/02/15 00:01:32;;;;;;;12.95;6.95;;;;;;;-0.85;62.26;101411.06;1680371;85;21449;-69
2022/02/15 00:03:59;;;;;;;12.03;7.08;;;;;;;-0.89;62.33;101416.28;1680384;85;21549;-69
2022/02/15 00:06:28;;;;;;;12.78;6.62;;;;;;;-0.87;62.38;101414.33;1680620;84;21060;-69
2022/02/15 00:08:54;;;;;;;12.53;6.72;;;;;;;-0.86;62.40;101413.83;1678128;85;20963;-69
2022/02/15 00:11:21;;;;;;;11.80;7.22;;;;;;;-0.86;62.44;101415.95;1667753;86;21816;-69
2022/02/15 00:13:47;;;;;;;10.60;6.33;;;;;;;-0.85;62.49;101416.31;1680221;85;21055;-68
2022/02/15 00:16:14;;;;;;;11.57;6.58;;;;;;;-0.83;62.51;101406.46;1678081;85;21053;-68
2022/02/15 00:18:42;;;;;;;11.95;6.35;;;;;;;-0.83;62.55;101406.46;1678031;85;37930;-68
2022/02/15 00:21:10;;;;;;;10.30;6.33;;;;;;;-0.80;62.57;101407.45;1651499;87;21067;-68
2022/02/15 00:23:37;;;;;;;11.53;6.08;;;;;;;-0.74;62.34;101406.81;1677952;85;21187;-68
2022/02/15 00:26:04;;;;;;;10.58;5.95;;;;;;;-0.74;62.34;101406.81;1677886;85;21069;-69
2022/02/15 00:28:31;;;;;;;10.65;5.62;;;;;;;-0.69;62.55;101408.12;1677940;85;21048;-68
2022/02/15 00:30:57;;;;;;;11.40;6.10;;;;;;;-0.69;62.55;101408.12;1651508;86;21018;-68
2022/02/15 00:33:25;;;;;;;11.53;6.20;;;;;;;-0.68;62.50;101394.05;1677886;85;21159;-69
2022/02/15 00:35:51;;;;;;;10.80;5.67;;;;;;;-0.68;62.50;101394.05;1678241;85;22108;-69
2022/02/15 00:38:19;;;;;;;11.78;6.28;;;;;;;-0.69;62.47;101391.91;1651058;87;21006;-68
2022/02/15 00:40:47;;;;;;;12.78;5.95;;;;;;;-0.69;62.47;101391.91;1678333;85;21510;-69
2022/02/15 00:43:15;;;;;;;10.32;6.17;;;;;;;-0.68;62.54;101390.92;1678051;85;20955;-69
2022/02/15 00:45:41;;;;;;;10.58;6.00;;;;;;;-0.67;62.58;101383.87;1668073;86;21142;-69
2022/02/15 00:48:10;;;;;;;9.83;5.65;;;;;;;-0.66;62.58;101386.81;1680377;85;21505;-68
2022/02/15 00:50:36;;;;;;;11.95;5.72;;;;;;;-0.63;62.56;101377.30;1678199;85;21045;-68
2022/02/15 00:53:03;;;;;;;9.88;5.90;;;;;;;-0.61;62.36;101374.04;1677934;85;21078;-69
2022/02/15 00:55:30;;;;;;;11.28;6.03;;;;;;;-0.61;62.36;101374.04;1667805;86;21106;-69
2022/02/15 00:57:57;;;;;;;11.50;5.47;;;;;;;-0.62;62.52;101380.28;1680488;85;21070;-68
2022/02/15 01:00:23;;;;;;;9.63;5.50;;;;;;;-0.62;62.26;101375.03;1678103;85;21802;-68
2022/02/15 01:02:50;;;;;;;10.88;5.60;;;;;;;-0.62;62.26;101375.03;1677985;85;21066;-68
2022/02/15 01:05:17;;;;;;;9.30;5.42;;;;;;;-0.66;62.76;101373.69;1651457;85;21043;-68
2022/02/15 01:07:43;;;;;;;11.55;6.25;;;;;;;-0.66;62.76;101373.69;1651127;87;21073;-68
2022/02/15 01:10:10;;;;;;;9.40;5.40;;;;;;;-0.63;62.52;101375.99;1651739;86;21114;-68
2022/02/15 01:12:39;;;;;;;9.35;5.60;;;;;;;-0.64;62.52;101379.11;1654651;85;21499;-67
2022/02/15 01:15:09;;;;;;;10.65;5.72;;;;;;;-0.66;62.36;101378.94;1677947;85;21110;-67
2022/02/15 01:17:36;;;;;;;10.65;6.25;;;;;;;-0.66;62.36;101378.94;1667482;86;21597;-67
2022/02/15 01:20:05;;;;;;;11.20;6.10;;;;;;;-0.67;62.47;101379.94;1680273;85;21145;-68
2022/02/15 01:22:31;;;;;;;10.50;6.03;;;;;;;-0.66;62.46;101378.94;1651123;87;21085;-67
2022/02/15 01:24:58;;;;;;;11.95;6.05;;;;;;;-0.67;62.41;101376.00;1677944;85;21150;-67
2022/02/15 01:27:25;;;;;;;10.72;6.10;;;;;;;-0.71;62.41;101372.38;1677467;85;21047;-69
2022/02/15 01:29:55;;;;;;;12.78;6.05;;;;;;;-0.73;62.41;101374.34;1651308;87;21026;-68
2022/02/15 01:32:22;;;;;;;11.15;6.37;;;;;;;-0.83;62.70;101368.42;1651182;87;21047;-68
2022/02/15 01:34:49;;;;;;;11.00;5.80;;;;;;;-0.83;62.70;101368.42;1678007;85;21026;-68
2022/02/15 01:37:15;;;;;;;13.28;6.67;;;;;;;-0.86;62.59;101372.69;1676900;85;21074;-68
2022/02/15 01:39:43;;;;;;;11.15;6.10;;;;;;;-0.90;62.71;101376.62;1642777;86;21135;-68
2022/02/15 01:42:11;;;;;;;10.90;5.72;;;;;;;-0.94;62.90;101372.69;1651734;86;21062;-68
2022/02/15 01:44:39;;;;;;;11.88;6.10;;;;;;;-0.95;62.91;101370.56;1651813;86;21018;-68
2022/02/15 01:47:07;;;;;;;11.33;5.62;;;;;;;-0.98;63.01;101366.95;1654020;86;21022;-68
2022/02/15 01:49:34;;;;;;;11.50;6.20;;;;;;;-1.03;63.17;101366.59;1626621;86;21179;-68
2022/02/15 01:52:01;;;;;;;11.00;6.37;;;;;;;-1.08;63.29;101357.59;1625922;88;21073;-68
2022/02/15 01:54:29;;;;;;;10.45;6.20;;;;;;;-1.08;63.29;101357.59;1651646;86;21068;-68
2022/02/15 01:56:57;;;;;;;9.88;5.97;;;;;;;-1.07;63.42;101361.84;1651656;86;21117;-68
2022/02/15 01:59:23;;;;;;;8.70;5.33;;;;;;;-1.08;63.34;101360.22;1626648;86;21698;-69
2022/02/15 02:01:50;;;;;;;10.90;5.85;;;;;;;-1.06;63.52;101367.41;1609943;85;21175;-68
2022/02/15 02:07:03;;;;;;;10.95;5.92;;;;;;;-1.09;63.61;101365.92;1626282;88;21450;-68
2022/02/15 02:09:33;;;;;;;10.15;6.33;;;;;;;-1.11;63.64;101366.59;1626351;87;21592;-68
2022/02/15 02:12:00;;;;;;;11.90;6.00;;;;;;;-1.12;63.68;101369.36;1629807;86;21136;-68
2022/02/15 02:14:29;;;;;;;12.58;6.22;;;;;;;-1.12;63.71;101362.80;1641961;87;21983;-68
2022/02/15 02:16:55;;;;;;;9.45;5.37;;;;;;;-1.16;63.85;101371.97;1654322;86;21457;-69
2022/02/15 02:19:24;;;;;;;10.00;5.47;;;;;;;-1.19;64.26;101369.98;1626426;86;21109;-68
2022/02/15 02:21:51;;;;;;;11.00;6.03;;;;;;;-1.19;64.26;101369.98;1643894;85;20970;-69
2022/02/15 02:24:20;;;;;;;11.93;5.75;;;;;;;-1.16;64.07;101369.35;1679393;85;21038;-68
2022/02/15 02:26:50;;;;;;;10.25;5.67;;;;;;;-1.16;64.10;101379.84;1669335;86;21117;-69
2022/02/15 02:29:17;;;;;;;10.45;5.72;;;;;;;-1.16;64.21;101374.59;1676550;85;21045;-68
2022/02/15 02:31:46;;;;;;;12.68;6.10;;;;;;;-1.16;64.26;101374.59;1645137;86;21064;-69
2022/02/15 02:34:18;;;;;;;12.58;6.33;;;;;;;-1.17;64.30;101372.47;1654464;84;21026;-70
2022/02/15 02:36:47;;;;;;;10.80;5.83;;;;;;;-1.19;64.43;101371.30;1664288;85;21010;-69
2022/02/15 02:39:17;;;;;;;12.82;6.30;;;;;;;-1.20;64.53;101367.05;1679727;85;21143;-69
2022/02/15 02:41:44;;;;;;;11.75;5.90;;;;;;;-1.08;64.42;101369.39;1636405;86;21006;-69
2022/02/15 02:44:11;;;;;;;10.13;6.03;;;;;;;-0.82;63.95;101364.84;1626260;88;21019;-68
2022/02/15 02:46:37;;;;;;;10.35;6.20;;;;;;;-0.72;63.76;101368.13;1652961;85;21065;-69
2022/02/15 02:49:04;;;;;;;11.88;6.42;;;;;;;-1.52;65.32;101370.86;1651993;86;20950;-69
2022/02/15 02:51:32;;;;;;;10.23;6.22;;;;;;;-1.64;65.86;101364.28;1603267;86;21553;-69
2022/02/15 02:54:00;;;;;;;11.60;6.37;;;;;;;-1.68;66.12;101370.30;1626196;88;21065;-69
2022/02/15 02:56:26;;;;;;;11.83;6.17;;;;;;;-1.70;66.33;101377.02;1626572;86;21072;-68
2022/02/15 02:58:54;;;;;;;11.93;6.22;;;;;;;-1.69;66.46;101377.34;1626331;88;21672;-67
2022/02/15 03:01:22;;;;;;;10.15;5.45;;;;;;;-1.68;66.54;101379.47;1632510;86;21045;-66
2022/02/15 03:03:51;;;;;;;11.57;6.50;;;;;;;-1.69;66.64;101378.65;1652405;85;21568;-67
2022/02/15 03:06:19;;;;;;;10.45;5.87;;;;;;;-1.67;66.71;101383.75;1679131;85;21057;-68
2022/02/15 03:08:46;;;;;;;11.57;6.05;;;;;;;-1.67;66.75;101376.70;1679576;85;20962;-69
2022/02/15 03:11:13;;;;;;;10.35;5.97;;;;;;;-1.67;66.84;101380.64;1627252;86;21018;-68
2022/02/15 03:13:44;;;;;;;12.05;6.55;;;;;;;-1.68;66.88;101384.24;1652340;86;20982;-68
2022/02/15 03:16:15;;;;;;;8.35;4.50;;;;;;;-1.66;66.92;101385.38;1652119;86;21525;-68
2022/02/15 03:18:42;;;;;;;10.82;6.80;;;;;;;-1.67;66.93;101385.87;1625782;88;21069;-68
2022/02/15 03:21:12;;;;;;;11.55;6.53;;;;;;;-1.65;66.92;101384.39;1651952;86;21034;-68
2022/02/15 03:23:39;;;;;;;12.20;6.70;;;;;;;-1.66;66.92;101385.38;1652022;86;21021;-68
2022/02/15 03:26:06;;;;;;;12.58;6.28;;;;;;;-1.67;66.93;101385.87;1642206;87;21647;-69
2022/02/15 03:28:35;;;;;;;11.85;6.87;;;;;;;-1.67;66.94;101388.50;1654181;86;21175;-68
2022/02/15 03:31:03;;;;;;;11.83;6.90;;;;;;;-1.71;66.98;101384.55;1626217;88;21189;-69
2022/02/15 03:33:33;;;;;;;13.62;6.95;;;;;;;-1.71;67.03;101387.63;1626346;88;21045;-69
2022/02/15 03:36:01;;;;;;;13.22;7.10;;;;;;;-1.74;67.03;101380.12;1626409;88;21148;-69
2022/02/15 03:38:28;;;;;;;12.53;7.28;;;;;;;-1.74;67.09;101383.55;1651697;86;21161;-69
2022/02/15 03:43:46;;;;;;;12.18;6.55;;;;;;;-1.77;67.16;101377.81;1641766;87;21071;-68
2022/02/15 03:46:14;;;;;;;12.78;7.40;;;;;;;-1.81;67.24;101379.92;1654051;86;21013;-68
2022/02/15 03:48:44;;;;;;;11.88;6.65;;;;;;;-1.83;67.28;101382.36;1626193;86;21073;-69
2022/02/15 03:51:10;;;;;;;12.20;6.90;;;;;;;-1.90;67.31;101381.66;1652032;86;21014;-68
2022/02/15 03:53:39;;;;;;;12.73;7.12;;;;;;;-1.94;67.43;101384.27;1651876;86;21142;-68
2022/02/15 03:56:09;;;;;;;14.25;7.15;;;;;;;-1.97;67.51;101388.50;1626163;88;21625;-67
2022/02/15 03:58:37;;;;;;;13.85;7.10;;;;;;;-1.99;67.56;101383.89;1651509;86;21615;-69
2022/02/15 04:01:05;;;;;;;11.33;6.72;;;;;;;-2.00;67.64;101386.67;1668033;84;21066;-68
2022/02/15 04:03:31;;;;;;;11.43;6.05;;;;;;;-1.98;67.73;101379.47;1680559;85;21015;-68
2022/02/15 04:06:00;;;;;;;12.55;6.47;;;;;;;-1.98;67.75;101380.28;1678190;85;21823;-68
2022/02/15 04:08:27;;;;;;;12.43;6.53;;;;;;;-1.98;67.77;101378.16;1677893;85;21647;-68
2022/02/15 04:11:08;;;;;;;13.30;6.67;;;;;;;-1.96;67.80;101377.53;1668016;86;21083;-68
2022/02/15 04:13:35;;;;;;;10.53;6.60;;;;;;;-1.96;67.81;101378.84;1680401;85;21015;-67
2022/02/15 04:16:03;;;;;;;14.13;7.33;;;;;;;-1.96;67.86;101378.34;1677799;85;21066;-68
2022/02/15 04:18:30;;;;;;;11.60;6.42;;;;;;;-1.95;67.84;101380.47;1678041;85;21164;-69
2022/02/15 04:20:59;;;;;;;12.95;6.75;;;;;;;-1.95;67.87;101376.55;1651529;87;21035;-68
2022/02/15 04:23:26;;;;;;;11.45;6.10;;;;;;;-1.95;67.88;101381.78;1677838;85;21021;-68
2022/02/15 04:25:52;;;;;;;14.45;7.35;;;;;;;-1.94;67.94;101376.87;1678034;85;21082;-68
2022/02/15 04:28:21;;;;;;;11.60;6.85;;;;;;;-1.94;67.95;101382.95;1666714;86;21016;-68
2022/02/15 04:30:48;;;;;;;13.35;6.55;;;;;;;-1.93;67.95;101389.01;1680526;85;22173;-68
2022/02/15 04:33:15;;;;;;;12.00;6.35;;;;;;;-1.93;67.93;101385.89;1677901;85;20978;-68
2022/02/15 04:35:42;;;;;;;10.38;6.65;;;;;;;-1.93;67.88;101386.39;1677748;85;21022;-69
2022/02/15 04:38:10;;;;;;;11.48;6.90;;;;;;;-1.92;67.88;101391.45;1651478;87;21035;-69
2022/02/15 04:40:38;;;;;;;11.93;6.90;;;;;;;-1.93;67.87;101384.59;1678121;85;21564;-69
2022/02/15 04:43:06;;;;;;;14.03;7.42;;;;;;;-1.93;67.86;101386.39;1678113;85;21148;-69
2022/02/15 04:45:32;;;;;;;11.90;6.83;;;;;;;-1.93;67.89;101386.39;1651433;86;20975;-69
2022/02/15 04:48:00;;;;;;;14.65;6.72;;;;;;;-1.94;67.92;101390.81;1678200;85;21026;-69
2022/02/15 04:50:28;;;;;;;12.28;6.55;;;;;;;-1.95;67.91;101384.40;1678049;85;21133;-69
2022/02/15 04:52:55;;;;;;;13.03;7.30;;;;;;;-1.98;67.89;101382.91;1667693;86;21146;-68
2022/02/15 04:55:23;;;;;;;11.70;6.83;;;;;;;-2.03;67.93;101386.48;1680538;85;21558;-69
2022/02/15 04:57:52;;;;;;;14.05;7.53;;;;;;;-2.03;67.97;101386.98;1678653;84;21056;-68
2022/02/15 05:00:18;;;;;;;15.18;7.50;;;;;;;-2.02;67.98;101392.55;1656232;86;21062;-68
2022/02/15 05:02:50;;;;;;;14.40;7.40;;;;;;;-2.03;68.01;101391.72;1660070;84;21117;-68
2022/02/15 05:05:17;;;;;;;12.98;7.55;;;;;;;-2.01;68.09;101396.30;1671622;85;21170;-68
2022/02/15 05:07:45;;;;;;;14.68;7.17;;;;;;;-1.98;68.13;101397.80;1651882;86;21450;-69
2022/02/15 05:10:12;;;;;;;14.47;7.50;;;;;;;-1.96;68.16;101399.78;1648112;86;21019;-68
2022/02/15 05:12:44;;;;;;;16.65;7.72;;;;;;;-1.95;68.17;101395.69;1654271;86;21019;-68
2022/02/15 05:15:11;;;;;;;13.90;7.35;;;;;;;-1.93;68.21;101404.72;1627196;86;21090;-68
2022/02/15 05:17:51;;;;;;;12.88;6.85;;;;;;;-1.94;68.28;101403.90;1625295;86;21082;-69
2022/02/15 05:20:20;;;;;;;12.85;7.42;;;;;;;-1.92;68.37;101405.86;1652294;85;21973;-69
2022/02/15 05:22:47;;;;;;;13.08;7.50;;;;;;;-1.94;68.48;101402.59;1654117;85;21108;-69
2022/02/15 05:25:17;;;;;;;15.38;8.05;;;;;;;-1.91;68.60;101410.14;1641966;87;21050;-67
2022/02/15 05:27:45;;;;;;;16.35;7.30;;;;;;;-1.89;68.68;101408.17;1655150;85;21041;-67
2022/02/15 05:30:14;;;;;;;13.10;7.80;;;;;;;-1.85;68.82;101410.48;1626448;86;21462;-68
2022/02/15 05:32:47;;;;;;;15.10;8.03;;;;;;;-1.79;68.90;101413.30;1623172;85;21214;-68
2022/02/15 05:35:14;;;;;;;11.78;6.92;;;;;;;-1.76;68.95;101414.80;1647277;85;21586;-67
2022/02/15 05:37:43;;;;;;;13.93;7.97;;;;;;;-1.73;68.98;101418.42;1679681;84;21025;-68
2022/02/15 05:40:14;;;;;;;11.10;6.70;;;;;;;-1.72;69.13;101420.05;1667003;85;21085;-68
2022/02/15 05:42:46;;;;;;;15.10;8.13;;;;;;;-1.67;69.21;101420.42;1625188;88;21082;-69
2022/02/15 05:45:15;;;;;;;16.32;7.80;;;;;;;-1.60;69.28;101427.16;1653207;85;21105;-68
2022/02/15 05:47:53;;;;;;;11.93;7.53;;;;;;;-1.52;69.37;101424.58;1632850;85;21117;-69
2022/02/15 05:53:07;;;;;;;14.07;7.85;;;;;;;-1.38;69.27;101424.01;1626421;88;21051;-68
2022/02/15 05:55:36;;;;;;;13.30;8.25;;;;;;;-1.24;69.34;101410.79;1629275;86;21743;-68
2022/02/15 05:58:05;;;;;;;13.03;8.10;;;;;;;-1.24;69.34;101410.79;1648496;85;21118;-68
2022/02/15 06:00:33;;;;;;;13.28;8.05;;;;;;;-1.13;69.44;101420.97;1679647;85;21089;-69
2022/02/15 06:03:00;;;;;;;15.05;7.90;;;;;;;-1.05;69.36;101420.20;1665968;85;21081;-69
2022/02/15 06:05:30;;;;;;;13.72;8.08;;;;;;;-0.96;69.34;101420.03;1626209;88;21046;-68
2022/02/15 06:08:00;;;;;;;16.10;8.63;;;;;;;-0.87;69.30;101419.58;1626587;88;21062;-69
2022/02/15 06:10:31;;;;;;;15.83;8.25;;;;;;;-0.80;69.21;101419.25;1627141;86;21962;-68
2022/02/15 06:13:00;;;;;;;14.95;8.28;;;;;;;-0.73;69.05;101424.18;1622846;88;21086;-68
2022/02/15 06:15:30;;;;;;;15.15;8.03;;;;;;;-0.65;69.02;101425.20;1652136;86;21076;-68
2022/02/15 06:18:12;;;;;;;15.15;8.60;;;;;;;-0.56;68.97;101423.73;1652188;86;21066;-69
2022/02/15 06:20:41;;;;;;;15.15;8.35;;;;;;;-0.44;68.82;101420.78;1651675;86;21488;-69
2022/02/15 06:23:09;;;;;;;13.58;7.80;;;;;;;-0.38;68.74;101418.33;1619818;87;21175;-68
2022/02/15 06:25:35;;;;;;;14.05;7.80;;;;;;;-0.31;68.62;101416.68;1654560;86;20990;-68
2022/02/15 06:28:03;;;;;;;13.60;8.30;;;;;;;-0.21;68.53;101409.95;1626351;88;20982;-69
2022/02/15 06:30:46;;;;;;;14.87;7.75;;;;;;;-0.09;68.42;101416.52;1651896;86;21026;-69
2022/02/15 06:33:17;;;;;;;13.88;8.28;;;;;;;0.02;68.30;101408.78;1651891;86;20984;-68
2022/02/15 06:35:45;;;;;;;14.80;8.10;;;;;;;0.14;68.19;101407.45;1626432;88;21513;-68
2022/02/15 06:38:12;;;;;;;15.58;8.03;;;;;;;0.25;68.00;101408.08;1626345;88;20987;-68
2022/02/15 06:40:39;;;;;;;15.98;7.92;;;;;;;0.36;67.88;101412.97;1626496;88;21561;-69
2022/02/15 06:43:10;;;;;;;14.90;8.80;;;;;;;0.48;67.69;101414.75;1626064;88;21057;-68
2022/02/15 06:45:38;;;;;;;14.58;8.75;;;;;;;0.58;67.49;101418.81;1626507;88;21096;-70
2022/02/15 06:48:05;;;;;;;13.75;7.97;;;;;;;0.65;67.24;101417.14;1651964;86;21164;-68
2022/02/15 06:50:35;;;;;;;13.80;7.92;;;;;;;0.74;67.08;101409.23;1652099;86;21438;-69
2022/02/15 06:53:12;;;;;;;12.95;7.45;;;;;;;0.80;66.86;101411.19;1641115;87;21051;-70
2022/02/15 06:55:43;;;;;;;14.95;7.85;;;;;;;0.85;66.67;101412.78;1686415;84;21520;-70
2022/02/15 06:58:10;;;;;;;13.48;7.87;;;;;;;0.88;66.47;101409.31;1708017;84;20994;-70
2022/02/15 07:00:38;;;;;;;14.78;8.65;;;;;;;0.97;66.36;101410.60;1708170;84;21199;-69
2022/02/15 07:03:05;;;;;;;12.93;7.83;;;;;;;1.06;66.25;101405.63;1697326;84;21106;-70
2022/02/15 07:05:34;;;;;;;14.83;8.03;;;;;;;1.14;65.88;101409.01;1710670;83;21007;-70
2022/02/15 07:08:00;;;;;;;13.22;8.40;;;;;;;1.22;65.79;101408.16;1680597;85;21023;-70
2022/02/15 07:10:33;;;;;;;13.78;8.10;;;;;;;1.35;65.69;101404.92;1680531;85;21022;-70
2022/02/15 07:13:02;;;;;;;13.68;8.28;;;;;;;1.43;65.52;101398.80;1680809;85;21771;-69
2022/02/15 07:15:33;;;;;;;14.03;8.48;;;;;;;1.48;65.39;101401.70;1708427;84;20947;-69
2022/02/15 07:18:02;;;;;;;14.83;8.13;;;;;;;1.57;65.28;101401.47;1707405;84;21062;-69
2022/02/15 07:20:33;;;;;;;;;;;;;;;1.67;65.12;101404.36;1709767;84;21457;-69
2022/02/15 07:23:18;;;;;;;12.55;8.05;;;;;;;1.74;65.01;101397.38;1708044;84;20144;-69
2022/02/15 07:26:02;;;;;;;12.95;8.08;;;;;;;1.86;64.81;101399.92;1627149;86;21142;-70
2022/02/15 07:28:42;;;;;;;15.20;8.80;;;;;;;2.02;64.67;101400.27;1646566;85;21042;-70
2022/02/15 07:31:08;;;;;;;16.32;9.23;;;;;;;2.11;64.24;101395.24;1626579;88;21537;-70
2022/02/15 07:33:35;;;;;;;18.35;9.25;;;;;;;2.19;63.96;101388.55;1651824;86;21096;-70
2022/02/15 07:36:04;;;;;;;16.50;8.65;;;;;;;2.31;63.66;101391.57;1651803;86;21021;-70
2022/02/15 07:38:33;;;;;;;14.53;8.13;;;;;;;2.41;63.34;101384.71;1654366;86;21090;-69
2022/02/15 07:40:59;;;;;;;13.90;7.67;;;;;;;2.52;63.07;101387.69;1676952;85;21037;-70
2022/02/15 07:43:26;;;;;;;15.53;7.60;;;;;;;2.66;62.72;101372.02;1679368;85;21537;-70
2022/02/15 07:45:55;;;;;;;13.95;8.05;;;;;;;2.75;62.26;101380.16;1668843;86;20996;-70
2022/02/15 07:48:21;;;;;;;14.75;8.08;;;;;;;2.87;62.08;101368.13;1682255;84;21088;-70
2022/02/15 07:50:48;;;;;;;13.18;7.60;;;;;;;2.98;61.62;101370.77;1679676;85;21127;-71
2022/02/15 07:53:15;;;;;;;13.88;7.90;;;;;;;3.09;61.22;101369.45;1681329;84;21073;-71
2022/02/15 07:55:42;;;;;;;36.13;12.47;;;;;;;3.18;61.03;101367.02;1697403;84;21499;-71
2022/02/15 07:58:10;;;;;;;18.73;11.20;;;;;;;3.28;60.57;101364.38;1680870;85;20990;-70
2022/02/15 08:00:38;;;;;;;15.13;8.53;;;;;;;3.37;60.12;101361.62;1680532;85;21089;-70
2022/02/15 08:03:05;;;;;;;14.25;7.55;;;;;;;3.45;59.80;101359.64;1708010;84;21528;-70
2022/02/15 08:05:34;;;;;;;15.48;7.40;;;;;;;3.53;59.43;101353.44;1707955;84;20932;-70
2022/02/15 08:08:04;;;;;;;11.48;6.83;;;;;;;3.63;58.98;101353.11;1706675;84;21441;-69
2022/02/15 08:10:33;;;;;;;13.15;6.58;;;;;;;3.71;58.41;101349.80;1680684;85;21133;-69
2022/02/15 08:13:01;;;;;;;11.80;6.30;;;;;;;3.79;58.01;101348.86;1707866;84;21484;-69
2022/02/15 08:15:32;;;;;;;12.58;5.97;;;;;;;3.88;57.63;101346.39;1707892;84;21316;-69
2022/02/15 08:18:01;;;;;;;10.43;6.20;;;;;;;3.94;57.31;101348.23;1697323;84;20975;-71
2022/02/15 08:20:33;;;;;;;11.00;6.70;;;;;;;4.00;56.79;101342.68;1710482;84;21101;-70
2022/02/15 08:23:00;;;;;;;14.00;6.28;;;;;;;4.06;56.58;101341.09;1680454;85;21027;-70
2022/02/15 08:25:28;;;;;;;10.35;5.87;;;;;;;4.13;56.43;101340.12;1707959;84;21403;-70
2022/02/15 08:27:55;;;;;;;11.65;6.08;;;;;;;4.23;56.20;101335.80;1707881;84;21153;-71
2022/02/15 08:30:22;;;;;;;10.55;6.17;;;;;;;4.32;55.84;101341.23;1697383;84;21007;-70
2022/02/15 08:32:50;;;;;;;11.88;6.05;;;;;;;4.41;55.71;101341.39;1710003;83;21453;-70
2022/02/15 08:35:19;;;;;;;14.43;6.50;;;;;;;4.50;55.42;101339.38;1707956;84;21053;-70
2022/02/15 08:37:46;;;;;;;9.58;5.70;;;;;;;4.60;55.16;101344.30;1708118;84;21139;-70
2022/02/15 08:40:13;;;;;;;11.10;5.90;;;;;;;4.70;54.86;101335.47;1710994;83;21685;-71
2022/02/15 08:42:43;;;;;;;9.85;5.37;;;;;;;4.79;54.47;101339.58;1709677;84;21025;-70
2022/02/15 08:45:11;;;;;;;10.98;5.95;;;;;;;4.87;54.18;101337.25;1700894;84;20987;-70
2022/02/15 08:47:38;;;;;;;11.95;5.75;;;;;;;4.95;53.87;101338.41;1676724;85;21072;-70
2022/02/15 08:50:08;;;;;;;9.10;5.37;;;;;;;5.02;53.44;101337.91;1676693;85;21527;-70
2022/02/15 08:52:36;;;;;;;12.05;5.47;;;;;;;5.10;53.40;101336.89;1696823;84;21123;-70
2022/02/15 08:55:05;;;;;;;8.20;4.78;;;;;;;5.20;53.23;101334.69;1651549;87;21454;-70
2022/02/15 08:57:32;;;;;;;11.50;5.72;;;;;;;5.29;52.71;101327.34;1651420;87;21608;-69
2022/02/15 08:59:59;;;;;;;9.43;4.87;;;;;;;5.36;52.42;101329.48;1651657;87;21106;-70
2022/02/15 09:02:27;;;;;;;11.28;5.92;;;;;;;5.43;52.08;101323.70;1677956;85;21019;-70
2022/02/15 09:04:53;;;;;;;8.83;5.40;;;;;;;5.52;51.75;101324.29;1678080;85;21568;-70
2022/02/15 09:07:20;;;;;;;9.78;5.08;;;;;;;5.57;51.24;101326.64;1667750;86;20976;-70
2022/02/15 09:09:46;;;;;;;10.18;5.37;;;;;;;5.62;50.92;101331.31;1680647;85;21517;-70
2022/02/15 09:12:14;;;;;;;10.25;5.25;;;;;;;5.65;50.70;101333.56;1677905;85;21568;-70
2022/02/15 09:14:40;;;;;;;8.60;4.58;;;;;;;5.68;50.50;101325.20;1678425;85;21034;-71
2022/02/15 09:17:07;;;;;;;7.28;4.87;;;;;;;5.72;50.32;101325.09;1667898;86;21146;-70
2022/02/15 09:19:35;;;;;;;7.62;4.92;;;;;;;5.78;49.97;101324.27;1680586;85;21014;-70
2022/02/15 09:22:03;;;;;;;9.40;4.60;;;;;;;5.82;49.76;101325.98;1678263;85;21019;-70
2022/02/15 09:24:30;;;;;;;8.15;4.70;;;;;;;5.88;49.50;101321.19;1678198;85;21010;-70
2022/02/15 09:26:58;;;;;;;7.35;4.37;;;;;;;5.95;49.40;101314.06;1667883;86;21078;-70
2022/02/15 09:29:24;;;;;;;7.65;4.40;;;;;;;6.04;49.05;101309.36;1680637;85;21518;-71
2022/02/15 09:31:53;;;;;;;7.05;3.60;;;;;;;6.13;48.70;101304.66;1651641;87;20975;-71
2022/02/15 09:34:23;;;;;;;9.85;4.55;;;;;;;6.22;48.57;101308.69;1651570;86;21030;-70
2022/02/15 09:36:50;;;;;;;11.03;4.40;;;;;;;6.29;48.38;101306.33;1677981;85;21070;-70
2022/02/15 09:39:17;;;;;;;7.78;4.17;;;;;;;6.38;47.86;101298.13;1677563;85;20975;-70
2022/02/15 09:41:45;;;;;;;8.85;4.40;;;;;;;6.43;47.75;101296.98;1651547;87;21162;-70
2022/02/15 09:44:13;;;;;;;6.42;4.20;;;;;;;6.50;47.36;101291.13;1651533;86;21019;-70
2022/02/15 09:46:44;;;;;;;7.22;4.50;;;;;;;6.54;47.19;101285.17;1653393;85;21073;-70
2022/02/15 09:51:57;;;;;;;8.05;4.65;;;;;;;6.64;46.90;101287.38;1672874;83;21029;-70
2022/02/15 09:54:27;;;;;;;6.72;4.22;;;;;;;6.70;46.61;101283.87;1680127;85;21439;-71
2022/02/15 09:56:52;;;;;;;6.75;4.30;;;;;;;6.75;46.21;101283.25;1680262;85;20963;-70
2022/02/15 09:59:20;;;;;;;8.40;4.47;;;;;;;6.76;45.93;101274.25;1651725;87;21250;-70
2022/02/15 10:01:48;;;;;;;8.63;4.95;;;;;;;6.76;45.78;101274.25;1678047;85;21105;-70
2022/02/15 10:04:20;;;;;;;7.35;4.35;;;;;;;6.76;45.67;101265.77;1678167;85;20980;-71
2022/02/15 10:06:47;;;;;;;7.87;4.42;;;;;;;6.79;45.39;101275.15;1667923;86;21133;-71
2022/02/15 10:09:14;;;;;;;7.30;4.30;;;;;;;6.82;45.72;101264.10;1680460;85;20979;-70
2022/02/15 10:11:45;;;;;;;7.62;4.50;;;;;;;6.88;45.56;101269.05;1651797;86;21046;-70
2022/02/15 10:14:12;;;;;;;9.68;4.92;;;;;;;6.92;45.56;101255.66;1651653;86;21018;-70
2022/02/15 10:16:51;;;;;;;6.80;4.10;;;;;;;6.96;45.34;101256.33;1678160;85;21053;-70
2022/02/15 10:19:30;;;;;;;7.72;4.65;;;;;;;7.00;45.42;101257.52;1678145;85;21093;-70
2022/02/15 10:21:58;;;;;;;9.10;4.85;;;;;;;7.03;45.16;101253.11;1678131;85;21592;-69
2022/02/15 10:24:28;;;;;;;9.73;4.50;;;;;;;7.06;45.17;101250.54;1667619;86;21015;-70
2022/02/15 10:27:07;;;;;;;7.80;4.37;;;;;;;7.08;45.03;101253.80;1680582;85;21010;-69
2022/02/15 10:29:36;;;;;;;7.12;4.33;;;;;;;7.07;45.08;101255.33;1648749;86;20970;-68
2022/02/15 10:32:05;;;;;;;8.33;4.50;;;;;;;7.09;44.96;101248.78;1677872;85;21528;-70
2022/02/15 10:34:32;;;;;;;9.38;5.00;;;;;;;7.12;44.90;101248.35;1677936;85;21510;-69
2022/02/15 10:37:05;;;;;;;10.25;4.75;;;;;;;7.15;44.90;101248.44;1667888;86;21681;-69
2022/02/15 10:39:44;;;;;;;7.05;4.25;;;;;;;7.18;44.54;101243.50;1680611;85;21071;-69
2022/02/15 10:42:22;;;;;;;7.50;4.40;;;;;;;7.20;44.36;101241.42;1651476;87;21534;-70
2022/02/15 10:45:02;;;;;;;8.73;4.75;;;;;;;7.22;44.42;101246.53;1651571;86;21867;-69
2022/02/15 10:47:31;;;;;;;8.08;4.70;;;;;;;7.18;44.35;101240.84;1678205;85;21097;-71
2022/02/15 10:50:03;;;;;;;6.72;4.28;;;;;;;7.19;44.30;101237.67;1678118;84;21053;-71
2022/02/15 10:52:30;;;;;;;7.35;4.58;;;;;;;7.18;44.48;101235.53;1668424;86;22281;-71
2022/02/15 10:54:56;;;;;;;7.67;4.60;;;;;;;7.17;44.30;101229.92;1680512;85;21022;-70
2022/02/15 10:57:24;;;;;;;8.10;4.75;;;;;;;7.20;44.56;101224.15;1678180;85;21206;-70
2022/02/15 10:59:55;;;;;;;7.40;4.45;;;;;;;7.24;44.58;101219.24;1678103;85;20978;-71
2022/02/15 11:02:27;;;;;;;7.85;4.45;;;;;;;7.26;44.53;101219.30;1668074;86;25617;-71
2022/02/15 11:04:56;;;;;;;6.80;4.57;;;;;;;7.28;44.41;101221.75;1680845;85;20983;-70
2022/02/15 11:07:26;;;;;;;8.45;4.60;;;;;;;7.32;44.39;101215.48;1651799;86;20995;-71
2022/02/15 11:10:20;;;;;;;8.28;4.45;;;;;;;7.33;44.46;101209.94;1678082;85;21812;-71
2022/02/15 11:12:59;;;;;;;9.40;4.72;;;;;;;7.39;44.37;101200.28;1677993;85;21021;-70
2022/02/15 11:15:31;;;;;;;8.05;5.08;;;;;;;7.40;44.09;101204.03;1678021;85;21042;-71
2022/02/15 11:18:02;;;;;;;8.30;4.58;;;;;;;7.40;44.16;101198.72;1667089;86;21146;-71
2022/02/15 11:20:56;;;;;;;7.72;4.45;;;;;;;7.39;43.90;101193.64;1679920;85;21026;-70
2022/02/15 11:23:30;;;;;;;8.75;4.90;;;;;;;7.39;44.12;101189.13;1678180;85;21473;-70
2022/02/15 11:26:11;;;;;;;6.90;4.08;;;;;;;7.40;44.02;101189.41;1678018;85;21002;-70
2022/02/15 11:28:50;;;;;;;7.87;4.53;;;;;;;7.43;43.99;101188.98;1668325;86;21455;-70
2022/02/15 11:31:34;;;;;;;8.68;4.30;;;;;;;7.43;44.00;101181.52;1680317;85;21066;-69
2022/02/15 11:34:05;;;;;;;9.60;4.65;;;;;;;7.42;43.99;101188.69;1678127;85;21548;-70
2022/02/15 11:36:47;;;;;;;7.50;4.33;;;;;;;7.42;44.00;101189.22;1678068;85;21704;-69
2022/02/15 11:39:26;;;;;;;9.25;5.58;;;;;;;7.45;44.03;101187.44;1651337;87;20983;-70
2022/02/15 11:41:55;;;;;;;7.83;4.83;;;;;;;7.46;43.95;101186.41;1651467;87;21031;-70
2022/02/15 11:44:34;;;;;;;8.63;5.42;;;;;;;7.49;44.11;101188.63;1651408;86;21022;-70